»·PEaware :: DAL1625 KFAT-KBUR

DAL1625 :: KFAT-KBUR

FLIGHT INFORMATION

Flight Status: Arrived
Operator:
Delta Air Lines
More flights by this operator :: More flights under this callsign
Pilot: Anonymous 21174 (21174)
Aircraft: BOEING 737-300
(B733)
More flights by this aircraft type
Origin: KFAT Fresno Yosemite Intl
United States
Destination: KBUR Bob Hope-Burbank
United States
More flights between these airports :: More routes between these airports
Route: +BULL3 FRAME PONDD TAFTO FIM FERN7
File this flight plan on PilotEdge
Remarks: RMK / SIMBRIEF
Altitude:
(Current/Filed)
27,000ft
Speed:
(Current/Filed)
448kts
Departed: 04-Nov-20 08:53 AM
Arrived: 04-Nov-20 09:30 AM
Distance/Time
Traveled:
169nm/0:37
Distance/Time
To Go:
Arrived

Flight Plot

Page will automatically refresh every two minutes.

Flight plan parsing failed; only flown route is shown


Map Options




Map Legend


Flown Route
Filed Route
Departure Airport
Arrival Airport
Navaid (VOR, NDB)
Fix

Horizontal Profiles

Position Reports

Time Latitude Longitude Heading Altitude Ground
Speed
04-Nov-20 08:29 36.771894 -119.718994 124 329ft 0kts
04-Nov-20 08:30 36.771894 -119.718994 124 329ft 0kts
04-Nov-20 08:31 36.771894 -119.718994 124 329ft 0kts
04-Nov-20 08:32 36.771894 -119.718994 124 329ft 0kts
04-Nov-20 08:33 36.771894 -119.718994 124 329ft 0kts
04-Nov-20 08:34 36.771894 -119.718994 124 329ft 0kts
04-Nov-20 08:35 36.771894 -119.718994 124 329ft 0kts
04-Nov-20 08:36 36.771894 -119.718994 124 329ft 0kts
04-Nov-20 08:37 36.771894 -119.718994 124 329ft 0kts
04-Nov-20 08:38 36.771894 -119.718994 124 329ft 0kts
04-Nov-20 08:39 36.771894 -119.718994 124 329ft 0kts
04-Nov-20 08:40 36.772168 -119.719506 117 330ft 1kts
04-Nov-20 08:41 36.771836 -119.720027 34 329ft 0kts
04-Nov-20 08:42 36.771835 -119.720027 34 329ft 0kts
04-Nov-20 08:43 36.771835 -119.720027 34 329ft 0kts
04-Nov-20 08:44 36.771835 -119.720027 34 329ft 0kts
04-Nov-20 08:45 36.772426 -119.719478 35 330ft 6kts
04-Nov-20 08:46 36.772269 -119.717190 125 332ft 9kts
04-Nov-20 08:47 36.771891 -119.715366 123 332ft 6kts
04-Nov-20 08:48 36.769592 -119.711342 125 332ft 18kts
04-Nov-20 08:49 36.767641 -119.704909 80 334ft 14kts
04-Nov-20 08:50 36.767946 -119.704294 25 335ft 0kts
04-Nov-20 08:51 36.768805 -119.703808 12 335ft 9kts
04-Nov-20 08:52 36.780707 -119.724419 304 683ft 172kts
04-Nov-20 08:53 36.810838 -119.778591 304 3306ft 222kts
04-Nov-20 08:54 36.831828 -119.850429 245 5854ft 245kts
04-Nov-20 08:55 36.767708 -119.862797 151 8402ft 273kts
04-Nov-20 08:56 36.697086 -119.817153 152 10708ft 312kts
04-Nov-20 08:57 36.614355 -119.764407 153 12497ft 336kts
04-Nov-20 08:58 36.526113 -119.708380 153 15031ft 361kts
04-Nov-20 08:59 36.433533 -119.649763 153 17666ft 376kts
04-Nov-20 09:00 36.337258 -119.588976 152 20086ft 389kts
04-Nov-20 09:01 36.237688 -119.526271 152 22305ft 402kts
04-Nov-20 09:02 36.134890 -119.461749 151 24327ft 414kts
04-Nov-20 09:03 36.029038 -119.395491 151 26114ft 427kts
04-Nov-20 09:04 35.920565 -119.327693 151 27294ft 428kts
04-Nov-20 09:05 35.812391 -119.268606 175 27267ft 423kts
04-Nov-20 09:06 35.692609 -119.279473 183 27275ft 426kts
04-Nov-20 09:07 35.572359 -119.289882 183 27276ft 426kts
04-Nov-20 09:08 35.452493 -119.300129 183 27269ft 427kts
04-Nov-20 09:09 35.331891 -119.310407 183 27257ft 427kts
04-Nov-20 09:10 35.211896 -119.320601 183 27246ft 430kts
04-Nov-20 09:11 35.103016 -119.295680 152 27282ft 372kts
04-Nov-20 09:12 35.009396 -119.242313 154 25843ft 363kts
04-Nov-20 09:13 34.918073 -119.191291 154 23533ft 355kts
04-Nov-20 09:14 34.827647 -119.141072 155 21136ft 349kts
04-Nov-20 09:15 34.739706 -119.092238 156 18977ft 337kts
04-Nov-20 09:16 34.654306 -119.044905 156 16854ft 329kts
04-Nov-20 09:17 34.571637 -118.999187 156 14738ft 319kts
04-Nov-20 09:18 34.493748 -118.949228 146 12622ft 311kts
04-Nov-20 09:20 34.421994 -118.890520 145 10498ft 304kts
04-Nov-20 09:21 34.351752 -118.833084 136 8363ft 298kts
04-Nov-20 09:22 34.337594 -118.740774 81 6599ft 275kts
04-Nov-20 09:23 34.340716 -118.651443 91 5267ft 254kts
04-Nov-20 09:24 34.337789 -118.568462 91 4147ft 230kts
04-Nov-20 09:25 34.335279 -118.493572 91 3207ft 208kts
04-Nov-20 09:26 34.325860 -118.429247 125 2951ft 191kts
04-Nov-20 09:27 34.291736 -118.392514 162 2321ft 140kts
04-Nov-20 09:28 34.254922 -118.372900 158 1992ft 138kts
04-Nov-20 09:29 34.217207 -118.361820 164 954ft 134kts
04-Nov-20 09:30 34.201992 -118.357643 166 727ft 24kts
04-Nov-20 09:31 34.194614 -118.355120 67 702ft 11kts
04-Nov-20 09:32 34.195595 -118.355303 339 704ft 1kts
04-Nov-20 09:33 34.195740 -118.354935 139 704ft 1kts
04-Nov-20 09:34 34.195697 -118.354884 134 703ft 0kts
04-Nov-20 09:35 34.195697 -118.354885 134 703ft 0kts
04-Nov-20 09:36 34.195697 -118.354885 134 703ft 0kts
04-Nov-20 09:37 34.195697 -118.354885 134 703ft 0kts
04-Nov-20 09:38 34.195697 -118.354885 134 703ft 0kts
04-Nov-20 09:38 34.195697 -118.354885 134 703ft 0kts
04-Nov-20 09:39 34.195697 -118.354885 134 703ft 0kts

Navigation Log

Ident Type
Flight plan parsing failed, navigation log unavailable